createdAt,value
2022-12-14T00:01:40.560Z,13.75
2022-12-14T00:06:41.935Z,14.02
2022-12-14T00:11:43.310Z,13.95
2022-12-14T00:16:44.719Z,14.02
2022-12-14T00:21:46.100Z,14.18
2022-12-14T00:26:47.723Z,14.31
2022-12-14T00:31:49.581Z,14.35
2022-12-14T00:36:50.992Z,14.32
2022-12-14T00:41:52.367Z,14.58
2022-12-14T00:46:53.760Z,14.47
2022-12-14T00:51:55.219Z,14.54
2022-12-14T00:56:56.579Z,14.66
2022-12-14T01:01:58.066Z,14.66
2022-12-14T01:06:59.483Z,14.75
2022-12-14T01:12:00.855Z,14.64
2022-12-14T01:17:02.369Z,14.61
2022-12-14T01:22:03.739Z,14.92
2022-12-14T01:27:05.121Z,14.89
2022-12-14T01:32:06.596Z,14.94
2022-12-14T01:37:07.960Z,14.92
2022-12-14T01:42:12.815Z,14.81
2022-12-14T01:47:19.119Z,14.99
2022-12-14T01:52:21.695Z,15.08
2022-12-14T01:57:26.848Z,15.05
2022-12-14T02:02:28.367Z,14.85
2022-12-14T02:07:30.080Z,14.76
2022-12-14T02:12:34.153Z,14.98
2022-12-14T02:17:35.556Z,14.91
2022-12-14T02:23:01.381Z,14.92
2022-12-14T02:28:39.713Z,14.92
2022-12-14T02:33:48.017Z,14.82
2022-12-14T02:39:09.141Z,14.65
2022-12-14T02:44:25.439Z,14.93
2022-12-14T02:49:49.637Z,14.75
2022-12-14T02:55:22.353Z,14.84
2022-12-14T03:00:24.120Z,14.89
2022-12-14T03:05:25.686Z,14.86
2022-12-14T03:10:48.902Z,15.10
2022-12-14T03:16:19.867Z,14.74
2022-12-14T03:21:25.161Z,15.04
2022-12-14T03:26:47.678Z,14.80
2022-12-14T03:31:52.748Z,15.12
2022-12-14T03:36:58.232Z,14.81
2022-12-14T03:42:20.604Z,14.90
2022-12-14T03:47:45.034Z,14.86
2022-12-14T03:52:52.855Z,14.80
2022-12-14T03:58:06.347Z,15.00
2022-12-14T04:03:18.395Z,15.04
2022-12-14T04:08:32.744Z,15.20
2022-12-14T04:13:56.993Z,15.10
2022-12-14T04:19:00.677Z,15.11
2022-12-14T04:24:25.828Z,15.28
2022-12-14T04:29:47.532Z,15.01
2022-12-14T04:34:51.042Z,15.00
2022-12-14T04:39:56.896Z,14.65
2022-12-14T04:45:03.516Z,14.99
2022-12-14T04:50:13.517Z,14.70
2022-12-14T04:55:31.597Z,14.64
2022-12-14T05:00:34.624Z,14.71
2022-12-14T05:05:42.179Z,14.65
2022-12-14T05:10:53.700Z,14.76
2022-12-14T05:15:55.757Z,14.90
2022-12-14T05:20:57.129Z,15.01
2022-12-14T05:25:58.494Z,14.97
2022-12-14T05:30:59.936Z,15.12
2022-12-14T05:36:01.358Z,15.15
2022-12-14T05:41:02.762Z,14.93
2022-12-14T05:46:04.521Z,14.67
2022-12-14T05:51:10.018Z,14.80
2022-12-14T05:56:11.457Z,14.81
2022-12-14T06:01:18.711Z,14.70
2022-12-14T06:06:21.194Z,14.61
2022-12-14T06:11:22.793Z,14.69
2022-12-14T06:16:24.990Z,14.90
2022-12-14T06:21:28.241Z,14.93
2022-12-14T06:26:30.419Z,15.27
2022-12-14T06:31:32.465Z,15.08
2022-12-14T06:36:34.791Z,15.08
2022-12-14T06:41:36.223Z,15.37
2022-12-14T06:46:37.636Z,15.24
2022-12-14T06:51:39.256Z,15.17
2022-12-14T06:56:40.879Z,15.26
2022-12-14T07:01:42.534Z,15.21
2022-12-14T07:06:44.001Z,15.31
2022-12-14T07:11:45.418Z,15.43
2022-12-14T07:16:48.796Z,15.84
2022-12-14T07:21:50.449Z,16.25
2022-12-14T07:26:51.872Z,16.40
2022-12-14T07:31:53.353Z,15.94
2022-12-14T07:36:54.734Z,15.71
2022-12-14T07:41:56.148Z,15.87
2022-12-14T07:46:57.679Z,15.77
2022-12-14T07:51:59.072Z,15.95
2022-12-14T07:57:00.473Z,15.66
2022-12-14T08:02:02.136Z,15.59
2022-12-14T08:07:03.554Z,15.85
2022-12-14T08:12:04.915Z,15.85
2022-12-14T08:17:06.288Z,15.83
2022-12-14T08:22:07.647Z,15.75
2022-12-14T08:27:09.012Z,16.02
2022-12-14T08:32:10.391Z,16.19
2022-12-14T08:37:11.783Z,16.39
2022-12-14T08:42:13.148Z,16.18
2022-12-14T08:47:14.511Z,16.00
2022-12-14T08:52:16.276Z,15.96
2022-12-14T08:57:17.659Z,15.92
2022-12-14T09:02:19.220Z,15.81
2022-12-14T09:07:20.742Z,15.94
2022-12-14T09:12:22.121Z,16.35
2022-12-14T09:17:23.533Z,16.07
2022-12-14T09:22:24.992Z,16.39
2022-12-14T09:27:26.462Z,16.12
2022-12-14T09:32:30.636Z,16.19
2022-12-14T09:37:32.027Z,16.06
2022-12-14T09:42:58.688Z,16.18
2022-12-14T09:48:07.919Z,16.25
2022-12-14T09:53:12.605Z,16.32
2022-12-14T09:58:23.712Z,16.42
2022-12-14T10:03:41.745Z,16.70
2022-12-14T10:09:15.679Z,17.33
2022-12-14T10:14:36.353Z,17.21
2022-12-14T10:19:52.986Z,17.08
2022-12-14T10:25:11.028Z,17.08
2022-12-14T10:30:16.525Z,16.88
2022-12-14T10:35:31.062Z,16.79
2022-12-14T10:40:34.713Z,16.78
2022-12-14T10:45:57.881Z,16.63
2022-12-14T10:51:31.569Z,17.08
2022-12-14T10:56:33.807Z,16.82
2022-12-14T11:01:35.414Z,16.90
2022-12-14T11:06:36.912Z,16.98
2022-12-14T11:11:38.371Z,17.04
2022-12-14T11:16:40.840Z,16.70
2022-12-14T11:21:42.329Z,16.77
2022-12-14T11:26:43.704Z,16.65
2022-12-14T11:31:48.868Z,16.71
2022-12-14T11:36:50.479Z,16.62
2022-12-14T11:42:01.229Z,16.71
2022-12-14T11:47:05.790Z,16.90
2022-12-14T11:52:21.393Z,17.04
2022-12-14T11:57:33.044Z,16.68
2022-12-14T12:02:41.106Z,16.66
2022-12-14T12:07:45.139Z,16.83
2022-12-14T12:12:55.268Z,16.85
2022-12-14T12:18:02.576Z,16.94
2022-12-14T12:23:16.466Z,17.11
2022-12-14T12:28:24.860Z,17.24
2022-12-14T12:33:34.408Z,16.93
2022-12-14T12:39:05.283Z,16.87
2022-12-14T12:44:17.716Z,17.15
2022-12-14T12:49:19.111Z,16.98
2022-12-14T12:54:26.609Z,16.68
2022-12-14T12:59:33.688Z,16.99
2022-12-14T13:04:36.970Z,16.90
2022-12-14T13:09:47.851Z,16.79
2022-12-14T13:14:49.624Z,17.20
2022-12-14T13:19:54.583Z,17.69
2022-12-14T13:24:59.791Z,17.37
2022-12-14T13:30:20.132Z,17.41
2022-12-14T13:35:38.119Z,17.23
2022-12-14T13:40:58.361Z,17.45
2022-12-14T13:46:05.951Z,17.54
2022-12-14T13:51:08.317Z,17.62
2022-12-14T13:56:09.899Z,17.60
2022-12-14T14:01:15.729Z,17.50
2022-12-14T14:06:30.760Z,17.22
2022-12-14T14:11:37.776Z,16.96
2022-12-14T14:16:43.359Z,16.70
2022-12-14T14:22:22.375Z,16.71
2022-12-14T14:27:29.701Z,16.46
2022-12-14T14:32:35.891Z,16.69
2022-12-14T14:37:38.072Z,16.85
2022-12-14T14:42:46.342Z,16.66
2022-12-14T14:47:54.061Z,16.90
2022-12-14T14:53:01.128Z,16.71
2022-12-14T14:58:02.319Z,16.91
2022-12-14T15:03:04.525Z,16.91
2022-12-14T15:08:22.563Z,16.75
2022-12-14T15:13:25.608Z,16.69
2022-12-14T15:18:30.435Z,16.66
2022-12-14T15:23:51.621Z,16.78
2022-12-14T15:28:54.603Z,16.92
2022-12-14T15:33:56.216Z,16.85
2022-12-14T15:38:57.745Z,17.04
2022-12-14T15:44:00.286Z,16.77
2022-12-14T15:49:03.765Z,16.78
2022-12-14T15:54:06.100Z,16.76
2022-12-14T15:59:15.487Z,16.76
2022-12-14T16:04:18.580Z,16.65
2022-12-14T16:09:25.946Z,16.80
2022-12-14T16:14:56.695Z,17.00
2022-12-14T16:20:02.828Z,17.25
2022-12-14T16:25:10.060Z,17.18
2022-12-14T16:30:27.328Z,17.17
2022-12-14T16:35:28.700Z,17.08
2022-12-14T16:40:38.640Z,17.31
2022-12-14T16:45:43.034Z,17.28
2022-12-14T16:51:04.956Z,17.33
2022-12-14T16:56:06.556Z,17.35
2022-12-14T17:01:08.727Z,17.29
2022-12-14T17:06:21.058Z,17.33
2022-12-14T17:11:22.469Z,17.14
2022-12-14T17:16:23.938Z,17.28
2022-12-14T17:21:27.019Z,17.70
2022-12-14T17:26:30.456Z,17.73
2022-12-14T17:31:31.936Z,17.56
2022-12-14T17:36:33.625Z,17.78
2022-12-14T17:41:35.465Z,17.87
2022-12-14T17:46:36.919Z,17.68
2022-12-14T17:51:41.639Z,17.74
2022-12-14T17:56:43.584Z,17.73
2022-12-14T18:01:45.034Z,17.72
2022-12-14T18:06:46.480Z,17.79
2022-12-14T18:12:20.864Z,17.84
2022-12-14T18:17:11.606Z,17.87
2022-12-14T18:22:13.840Z,17.61
2022-12-14T18:27:15.297Z,17.67
2022-12-14T18:32:16.861Z,17.54
2022-12-14T18:37:23.227Z,17.98
2022-12-14T18:42:25.950Z,17.72
2022-12-14T18:47:41.816Z,17.83
2022-12-14T18:52:44.336Z,17.98
2022-12-14T18:57:45.959Z,17.70
2022-12-14T19:02:50.059Z,17.52
2022-12-14T19:07:51.679Z,17.67
2022-12-14T19:12:53.227Z,17.74
2022-12-14T19:17:54.821Z,17.72
2022-12-14T19:22:56.356Z,17.47
2022-12-14T19:33:20.389Z,18.15
2022-12-14T19:38:21.754Z,17.98
2022-12-14T19:43:23.116Z,17.93
2022-12-14T19:48:24.475Z,17.97
2022-12-14T19:53:25.836Z,17.80
2022-12-14T19:58:27.956Z,18.15
2022-12-14T20:03:30.089Z,17.94
2022-12-14T20:08:32.092Z,17.94
2022-12-14T20:13:34.092Z,17.95
2022-12-14T20:18:35.746Z,17.81
2022-12-14T20:23:37.475Z,17.62
2022-12-14T20:28:38.879Z,17.79
2022-12-14T20:33:40.264Z,17.74
2022-12-14T20:38:41.852Z,17.69
2022-12-14T20:43:43.868Z,17.40
2022-12-14T20:48:47.265Z,17.57
2022-12-14T20:53:49.379Z,17.78
2022-12-14T20:58:50.820Z,17.66
2022-12-14T21:03:52.338Z,17.98
2022-12-14T21:09:05.513Z,18.08
2022-12-14T21:14:06.959Z,18.17
2022-12-14T21:19:08.578Z,18.10
2022-12-14T21:24:10.736Z,18.10
2022-12-14T21:29:12.565Z,18.40
2022-12-14T21:34:15.030Z,18.22
2022-12-14T21:39:17.683Z,17.97
2022-12-14T21:44:19.052Z,17.98
2022-12-14T21:49:20.547Z,18.06
2022-12-14T21:54:22.136Z,17.86
2022-12-14T21:59:31.047Z,18.19
2022-12-14T22:04:37.864Z,17.99
2022-12-14T22:09:41.175Z,18.17
2022-12-14T22:14:42.552Z,18.18
2022-12-14T22:19:44.010Z,17.91
2022-12-14T22:24:47.971Z,18.08
2022-12-14T22:29:49.336Z,17.76
2022-12-14T22:34:50.692Z,17.97
2022-12-14T22:39:52.072Z,17.71
2022-12-14T22:44:54.418Z,17.94
2022-12-14T22:49:55.786Z,17.89
2022-12-14T22:54:57.166Z,18.06
2022-12-14T23:00:01.084Z,18.17
2022-12-14T23:05:02.465Z,18.25
2022-12-14T23:10:22.432Z,17.92
2022-12-14T23:15:42.087Z,18.05
2022-12-14T23:21:01.827Z,17.86
2022-12-14T23:26:22.488Z,17.70
2022-12-14T23:31:42.284Z,17.78
2022-12-14T23:37:01.743Z,17.97
2022-12-14T23:42:21.781Z,17.74
2022-12-14T23:47:41.389Z,17.99
2022-12-14T23:53:01.052Z,18.01
2022-12-14T23:58:20.759Z,17.90
